Latest Weather Observations for Geelong Racecourse

IDV60901

Issued at 8:21 pm EDT Friday 23 October 2020 (issued every 10 minutes, with the page automatically refreshed every 10 minutes)

About weather observations | Map of Melbourne area stations | Latest observations for Melbourne area | Other Formats
Station Details ID: 087184 Name: GEELONG RACECOURSE Lat: -38.17 Lon: 144.38 Height: 12.9 m
Data from the previous 72 hours. | See also: Recent months at Geelong Racecourse
Date/Time
EDT
Temp
°C
App
Temp
°C
Dew
Point
°C
Rel
Hum
%
Delta-T
°C
Wind Press
QNH
hPa
Press
MSL
hPa
Rain since
9am
mm
Dir  Spd
km/h
Gust
km/h
Spd
kts
Gust
kts
23/08:00pm 14.6 13.7 13.8 95 0.4 S 11 13 6 7 1004.8 1004.8 0.2
23/07:30pm 14.9 14.4 13.9 94 0.6 S 9 13 5 7 1004.8 1004.8 0.2
23/07:00pm 15.5 15.4 14.0 91 0.8 S 7 11 4 6 1004.8 1004.8 0.2
23/06:30pm 16.1 15.6 13.8 86 1.3 S 9 15 5 8 1004.7 1004.7 0.2
23/06:00pm 16.6 16.1 13.9 84 1.5 S 9 13 5 7 1004.8 1004.8 0.2
23/05:30pm 17.5 16.8 14.2 81 1.9 SSE 11 13 6 7 1004.7 1004.7 0.2
23/05:00pm 18.8 19.0 14.7 77 2.4 E 7 13 4 7 1004.5 1004.5 0.2
23/04:30pm 19.9 20.0 15.5 76 2.6 NNE 9 11 5 6 1004.4 1004.4 0.2
23/04:00pm 20.3 20.4 14.4 69 3.4 E 7 13 4 7 1004.7 1004.7 0.0
23/03:30pm 19.4 19.9 15.5 78 2.3 NNE 7 13 4 7 1005.3 1005.3 0.0
23/03:00pm 19.0 19.5 14.9 77 2.4 ESE 6 11 3 6 1006.1 1006.1 0.0
23/02:30pm 17.6 18.7 14.5 82 1.8 NNE 2 7 1 4 1007.1 1007.1 0.0
23/02:00pm 16.6 16.5 13.9 84 1.5 S 7 9 4 5 1007.4 1007.4 0.0
23/01:30pm 16.2 15.7 13.9 86 1.3 S 9 11 5 6 1007.7 1007.7 0.0
23/01:00pm 16.6 16.8 14.6 88 1.2 S 7 13 4 7 1007.9 1007.9 0.0
23/12:30pm 16.1 15.6 13.9 87 1.2 S 9 11 5 6 1008.1 1008.1 0.0
23/12:00pm 15.8 15.9 13.8 88 1.1 S 6 13 3 7 1008.4 1008.4 0.0
23/11:30am 15.5 15.8 13.3 87 1.2 SW 4 7 2 4 1009.5 1009.5 0.0
23/11:00am 15.1 14.9 13.5 90 0.9 S 7 9 4 5 1009.4 1009.4 0.0
23/10:30am 14.8 14.5 13.2 90 0.9 SSE 7 9 4 5 1009.2 1009.2 0.0
23/10:00am 14.7 14.0 13.1 90 0.9 SSE 9 13 5 7 1009.2 1009.2 0.0
23/09:30am 14.7 13.6 13.1 90 0.9 SSE 11 17 6 9 1009.1 1009.1 0.0
23/09:00am 14.1 13.0 13.1 94 0.6 S 11 17 6 9 1009.5 1009.5 0.2
23/08:30am 13.4 12.6 12.8 96 0.3 S 9 13 5 7 1009.1 1009.1 0.2
23/08:00am 12.8 12.8 12.3 97 0.3 SSW 4 7 2 4 1009.9 1009.9 0.2
23/07:30am 12.4 11.8 11.8 96 0.3 SSE 6 7 3 4 1009.4 1009.4 0.2
23/07:00am 12.3 11.5 11.7 96 0.3 SSW 7 9 4 5 1009.7 1009.7 0.2
23/06:30am 12.3 11.7 11.7 96 0.3 SSW 6 6 3 3 1008.9 1008.9 0.0
23/06:00am 12.3 12.1 11.7 96 0.3 SE 4 6 2 3 1008.7 1008.7 0.0
23/05:30am 12.4 11.6 11.8 96 0.3 SSW 7 9 4 5 1009.1 1009.1 0.0
23/05:00am 12.4 12.9 11.6 95 0.4 CALM 0 0 0 0 1009.2 1009.2 0.0
23/04:30am 12.3 12.7 11.4 94 0.5 CALM 0 0 0 0 1009.0 1009.0 0.0
23/04:00am 12.3 12.7 11.2 93 0.6 CALM 0 0 0 0 1009.3 1009.3 0.0
23/03:30am 12.3 12.7 11.2 93 0.6 CALM 0 0 0 0 1009.8 1009.8 0.0
23/03:00am 12.3 11.5 11.2 93 0.6 W 6 6 3 3 1010.5 1010.5 0.0
23/02:30am 12.4 12.4 11.1 92 0.7 NE 2 4 1 2 1010.6 1010.6 0.0
23/02:00am 12.2 12.5 10.9 92 0.7 CALM 0 0 0 0 1010.7 1010.7 0.0
23/01:30am 12.1 11.6 10.8 92 0.7 S 4 6 2 3 1011.2 1011.2 0.0
23/01:00am 11.9 11.3 10.5 91 0.7 S 4 6 2 3 1012.0 1012.0 0.0
23/12:30am 11.6 11.0 10.3 92 0.7 S 4 4 2 2 1012.7 1012.7 0.0
23/12:00am 11.8 11.1 10.0 89 0.9 S 4 6 2 3 1013.1 1013.1 0.0
 
Date/Time
EDT
Temp
°C
App
Temp
°C
Dew
Point
°C
Rel
Hum
%
Delta-T
°C
Wind Press
QNH
hPa
Press
MSL
hPa
Rain since
9am
mm
Dir  Spd
km/h
Gust
km/h
Spd
kts
Gust
kts
22/11:30pm 11.9 10.8 10.1 89 0.9 SSW 6 6 3 3 1013.6 1013.6 0.0
22/11:00pm 12.2 11.0 10.3 88 1.0 S 7 9 4 5 1013.7 1013.7 0.0
22/10:30pm 12.2 11.1 9.9 86 1.2 SSE 6 9 3 5 1014.1 1014.1 0.0
22/10:00pm 11.8 10.6 9.5 86 1.2 SSE 6 7 3 4 1014.2 1014.2 0.0
22/09:30pm 11.9 10.4 9.3 84 1.3 S 7 13 4 7 1014.3 1014.3 0.0
22/09:00pm 12.3 10.5 9.5 83 1.4 S 9 11 5 6 1014.2 1014.2 0.0
22/08:30pm 12.5 10.7 9.5 82 1.5 S 9 13 5 7 1014.2 1014.2 0.0
22/08:00pm 12.7 10.5 9.3 80 1.7 S 11 17 6 9 1013.8 1013.8 0.0
22/07:30pm 13.1 10.9 9.4 78 1.9 SSE 11 17 6 9 1013.6 1013.6 0.0
22/07:00pm 13.4 10.8 9.5 77 2.0 SSE 13 22 7 12 1013.6 1013.6 0.0
22/06:30pm 13.8 10.1 9.6 76 2.2 SSE 19 24 10 13 1013.7 1013.7 0.0
22/06:00pm 14.4 11.4 9.4 72 2.6 S 15 24 8 13 1013.8 1013.8 0.0
22/05:30pm 14.9 11.7 9.9 72 2.6 S 17 24 9 13 1013.7 1013.7 0.0
22/05:00pm 15.5 12.5 10.5 72 2.6 SSE 17 24 9 13 1013.4 1013.4 0.0
22/04:30pm 15.8 12.8 10.6 71 2.8 SSE 17 22 9 12 1013.8 1013.8 0.0
22/04:00pm 16.2 13.2 10.7 70 2.9 S 17 24 9 13 1014.2 1014.2 0.0
22/03:30pm 16.4 13.6 10.0 66 3.4 S 15 19 8 10 1014.2 1014.2 0.0
22/03:00pm 15.8 13.0 10.1 69 3.0 SSE 15 26 8 14 1014.7 1014.7 0.0
22/02:30pm 15.9 13.1 10.0 68 3.1 SSE 15 22 8 12 1014.9 1014.9 0.0
22/02:00pm 16.3 13.9 9.9 66 3.4 SE 13 20 7 11 1015.1 1015.1 0.0
22/01:30pm 15.9 13.8 9.8 67 3.2 SE 11 19 6 10 1015.4 1015.4 0.0
22/01:00pm 15.5 13.7 9.4 67 3.1 SE 9 17 5 9 1015.4 1015.4 0.0
22/12:30pm 15.4 13.7 9.7 69 3.0 SE 9 15 5 8 1015.7 1015.7 0.0
22/12:00pm 14.6 12.0 9.2 70 2.8 S 13 19 7 10 1016.3 1016.3 0.0
22/11:30am 14.7 13.0 8.4 66 3.2 ESE 7 11 4 6 1016.6 1016.6 0.0
22/11:00am 14.8 12.9 9.0 68 3.0 SE 9 15 5 8 1016.8 1016.8 0.0
22/10:30am 15.6 14.1 9.1 65 3.3 SE 7 13 4 7 1016.9 1016.9 0.0
22/10:00am 14.9 12.9 8.8 67 3.1 SE 9 15 5 8 1017.1 1017.1 0.0
22/09:30am 13.7 12.5 9.4 75 2.2 SE 6 13 3 7 1017.2 1017.2 0.0
22/09:00am 13.5 12.3 9.6 77 2.0 ESE 6 7 3 4 1017.2 1017.2 0.0
22/08:30am 12.7 12.0 9.9 83 1.4 ESE 4 6 2 3 1017.0 1017.0 0.0
22/08:00am 10.5 10.5 9.7 95 0.4 CALM 0 0 0 0 1016.9 1016.9 0.0
22/07:30am 9.5 9.3 9.2 98 0.1 CALM 0 0 0 0 1016.7 1016.7 0.0
22/07:00am 7.7 6.7 7.3 97 0.2 W 2 2 1 1 1016.6 1016.6 0.0
22/06:30am 7.5 6.4 7.1 97 0.2 W 2 2 1 1 1016.3 1016.3 0.0
22/06:00am 7.2 6.0 6.6 96 0.3 SW 2 6 1 3 1016.3 1016.3 0.0
22/05:30am 7.5 6.8 6.9 96 0.3 CALM 0 0 0 0 1015.7 1015.7 0.0
22/05:00am 7.4 6.2 6.5 94 0.4 SSW 2 4 1 2 1015.5 1015.5 0.0
22/04:30am 8.2 7.6 7.4 95 0.4 CALM 0 0 0 0 1015.3 1015.3 0.0
22/04:00am 8.6 8.1 7.8 95 0.4 CALM 0 0 0 0 1015.7 1015.7 0.0
22/03:30am 8.9 8.4 8.0 94 0.4 CALM 0 0 0 0 1015.9 1015.9 0.0
22/03:00am 9.5 9.2 8.6 94 0.4 CALM 0 0 0 0 1016.2 1016.2 0.0
22/02:30am 9.6 9.1 7.9 89 0.8 CALM 0 0 0 0 1016.3 1016.3 0.0
22/02:00am 10.7 10.1 8.8 88 0.9 SSE 2 2 1 1 1016.5 1016.5 0.0
22/01:30am 11.3 10.3 9.0 86 1.1 SSE 4 4 2 2 1017.0 1017.0 0.0
22/01:00am 11.2 10.6 8.9 86 1.1 SSE 2 4 1 2 1017.2 1017.2 0.0
22/12:30am 11.4 10.8 9.0 85 1.2 SSE 2 2 1 1 1017.5 1017.5 0.0
22/12:00am 11.4 10.4 9.0 85 1.2 S 4 6 2 3 1017.6 1017.6 0.0
 
Date/Time
EDT
Temp
°C
App
Temp
°C
Dew
Point
°C
Rel
Hum
%
Delta-T
°C
Wind Press
QNH
hPa
Press
MSL
hPa
Rain since
9am
mm
Dir  Spd
km/h
Gust
km/h
Spd
kts
Gust
kts
21/11:30pm 11.3 10.3 8.9 85 1.2 S 4 6 2 3 1017.7 1017.7 0.0
21/11:00pm 11.1 9.7 9.0 87 1.0 S 6 7 3 4 1017.9 1017.9 0.0
21/10:30pm 10.8 9.3 8.4 85 1.2 S 6 6 3 3 1017.8 1017.8 0.0
21/10:00pm 10.9 9.4 8.3 84 1.3 S 6 7 3 4 1017.8 1017.8 0.0
21/09:30pm 11.1 9.4 8.3 83 1.4 S 7 9 4 5 1017.8 1017.8 0.0
21/09:00pm 11.5 9.7 8.0 79 1.7 S 7 9 4 5 1017.5 1017.5 0.0
21/08:30pm 12.4 10.6 7.9 74 2.2 SSE 7 13 4 7 1017.4 1017.4 0.0
21/08:00pm 12.7 10.7 8.6 76 2.0 S 9 13 5 7 1017.3 1017.3 0.0
21/07:30pm 12.9 10.4 8.2 73 2.3 S 11 19 6 10 1016.9 1016.9 0.0
21/07:00pm 13.1 9.8 8.0 71 2.5 S 15 20 8 11 1016.7 1016.7 0.0
21/06:30pm 13.5 10.2 8.1 70 2.7 SSE 15 20 8 11 1016.4 1016.4 0.0
21/06:00pm 13.5 9.8 7.9 69 2.8 S 17 20 9 11 1016.2 1016.2 0.0
21/05:30pm 14.2 11.0 8.6 69 2.8 SSE 15 20 8 11 1016.0 1016.0 0.0
21/05:00pm 14.2 10.8 9.0 71 2.6 SSE 17 24 9 13 1015.8 1015.8 0.0
21/04:30pm 13.9 10.1 8.9 72 2.5 S 19 24 10 13 1015.9 1015.9 0.0
21/04:00pm 14.4 11.1 9.4 72 2.6 SSE 17 24 9 13 1015.8 1015.8 0.0
21/03:30pm 15.0 11.9 10.4 74 2.4 SSE 17 24 9 13 1016.1 1016.1 0.0
21/03:00pm 15.1 11.4 10.3 73 2.5 S 20 28 11 15 1016.2 1016.2 0.0
21/02:30pm 15.0 11.4 8.5 65 3.3 S 17 26 9 14 1016.2 1016.2 0.0
21/02:00pm 15.3 11.6 8.1 62 3.6 S 17 26 9 14 1016.4 1016.4 0.0
21/01:30pm 16.0 12.8 8.5 61 3.8 SSE 15 22 8 12 1016.4 1016.4 0.0
21/01:00pm 16.1 13.9 7.8 58 4.2 S 9 15 5 8 1016.6 1016.6 0.0
21/12:30pm 15.6 13.3 7.6 59 4.0 S 9 17 5 9 1016.8 1016.8 0.0
21/12:00pm 16.3 13.6 9.0 62 3.8 SSE 13 24 7 13 1016.9 1016.9 0.0
21/11:30am 15.3 12.9 8.5 64 3.4 SSE 11 17 6 9 1017.1 1017.1 0.0
21/11:00am 15.6 14.3 9.1 65 3.3 ESE 6 11 3 6 1017.2 1017.2 0.0
21/10:30am 15.2 13.4 9.6 69 2.9 S 9 15 5 8 1017.3 1017.3 0.0
21/10:00am 15.4 14.0 9.7 69 3.0 S 7 11 4 6 1017.3 1017.3 0.0
21/09:30am 14.8 13.5 9.8 72 2.6 S 7 13 4 7 1017.4 1017.4 0.0
21/09:00am 13.6 12.5 9.8 78 2.0 SW 6 9 3 5 1017.1 1017.1 0.0
21/08:30am 12.4 11.3 9.8 84 1.3 WSW 6 9 3 5 1017.2 1017.2 0.0
21/08:00am 10.3 9.3 8.9 91 0.7 WSW 4 7 2 4 1017.0 1017.0 0.0
21/07:30am 8.0 6.9 7.1 94 0.4 W 2 2 1 1 1016.6 1016.6 0.0
21/07:00am 7.8 6.4 7.1 95 0.3 W 4 6 2 3 1016.6 1016.6 0.0
21/06:30am 8.1 7.5 7.2 94 0.4 CALM 0 4 0 2 1016.3 1016.3 0.0
21/06:00am 8.2 7.2 7.3 94 0.4 SW 2 4 1 2 1015.9 1015.9 0.0
21/05:30am 8.4 7.8 7.5 94 0.4 CALM 0 0 0 0 1015.6 1015.6 0.0
21/05:00am 8.8 8.3 7.7 93 0.5 CALM 0 2 0 1 1015.7 1015.7 0.0
21/04:30am 8.9 8.3 7.5 91 0.7 CALM 0 0 0 0 1015.7 1015.7 0.0
21/04:00am 9.2 8.7 8.0 92 0.6 CALM 0 0 0 0 1015.9 1015.9 0.0
21/03:30am 9.3 8.4 7.9 91 0.7 WSW 2 4 1 2 1016.0 1016.0 0.0
21/03:00am 9.9 9.5 8.2 89 0.8 CALM 0 0 0 0 1015.8 1015.8 0.0
21/02:30am 9.7 9.3 8.1 90 0.8 CALM 0 0 0 0 1016.4 1016.4 0.0
21/02:00am 10.0 9.6 8.3 89 0.8 CALM 0 0 0 0 1016.7 1016.7 0.0
21/01:30am 10.4 10.1 8.5 88 0.9 CALM 0 0 0 0 1017.0 1017.0 0.0
21/01:00am 10.5 10.0 7.7 83 1.3 CALM 0 0 0 0 1017.3 1017.3 0.0
21/12:30am 11.7 11.3 8.2 79 1.7 CALM 0 0 0 0 1017.4 1017.4 0.0
21/12:00am 12.0 11.7 8.7 80 1.6 CALM 0 2 0 1 1017.5 1017.5 0.0
 
Date/Time
EDT
Temp
°C
App
Temp
°C
Dew
Point
°C
Rel
Hum
%
Delta-T
°C
Wind Press
QNH
hPa
Press
MSL
hPa
Rain since
9am
mm
Dir  Spd
km/h
Gust
km/h
Spd
kts
Gust
kts
20/11:30pm 12.2 11.2 8.9 80 1.6 SE 4 6 2 3 1017.8 1017.8 0.0
20/11:00pm 12.4 11.4 8.7 78 1.8 SSE 4 4 2 2 1017.9 1017.9 0.0
20/10:30pm 12.3 10.9 8.8 79 1.7 SSE 6 9 3 5 1017.9 1017.9 0.0
20/10:00pm 12.1 10.7 8.9 81 1.6 S 6 7 3 4 1018.0 1018.0 0.0
20/09:30pm 12.1 10.5 8.9 81 1.6 S 7 9 4 5 1018.1 1018.1 0.0
20/09:00pm 12.0 10.6 8.7 80 1.6 SSE 6 9 3 5 1018.0 1018.0 0.0
20/08:30pm 11.9 10.3 8.2 78 1.8 S 6 7 3 4 1017.8 1017.8 0.0

Latest Capital City Observations: Canberra | Sydney | Melbourne | Brisbane | Adelaide | Perth | Hobart | Darwin

Other formats

Comma delimited format used in spreadsheet applications
http://www.bom.gov.au/fwo/IDV60901/IDV60901.94857.axf

JavaScript Object Notation format (JSON) in row-major order
http://www.bom.gov.au/fwo/IDV60901/IDV60901.94857.json

Data quality

Most of these data are generated automatically and are frequently updated. Quality checks on data are not normally performed. It is possible for incorrect values to appear. Refer to information at About Latest Weather Observations and please check the disclaimer before using these data.